sensor_id;sensor_type;location;lat;lon;timestamp;temperature;humidity
36652;DHT22;53334;51.976;20.144;2023-03-15T00:01:12;26.10;51.80
36652;DHT22;53334;51.976;20.144;2023-03-15T00:03:47;26.10;51.70
36652;DHT22;53334;51.976;20.144;2023-03-15T00:06:20;26.10;51.50
36652;DHT22;53334;51.976;20.144;2023-03-15T00:08:54;26.10;51.40
36652;DHT22;53334;51.976;20.144;2023-03-15T00:11:29;26.10;51.40
36652;DHT22;53334;51.976;20.144;2023-03-15T00:14:02;26.10;51.40
36652;DHT22;53334;51.976;20.144;2023-03-15T00:16:37;26.10;51.30
36652;DHT22;53334;51.976;20.144;2023-03-15T00:19:10;26.10;51.40
36652;DHT22;53334;51.976;20.144;2023-03-15T00:21:43;26.10;51.40
36652;DHT22;53334;51.976;20.144;2023-03-15T00:24:17;26.10;51.40
36652;DHT22;53334;51.976;20.144;2023-03-15T00:26:51;26.00;51.30
36652;DHT22;53334;51.976;20.144;2023-03-15T00:29:25;26.10;51.30
36652;DHT22;53334;51.976;20.144;2023-03-15T00:31:58;26.10;51.30
36652;DHT22;53334;51.976;20.144;2023-03-15T00:34:32;26.00;51.20
36652;DHT22;53334;51.976;20.144;2023-03-15T00:37:05;26.00;51.10
36652;DHT22;53334;51.976;20.144;2023-03-15T00:39:39;26.00;51.00
36652;DHT22;53334;51.976;20.144;2023-03-15T00:42:14;26.00;51.00
36652;DHT22;53334;51.976;20.144;2023-03-15T00:44:47;26.10;51.10
36652;DHT22;53334;51.976;20.144;2023-03-15T00:47:22;26.00;51.40
36652;DHT22;53334;51.976;20.144;2023-03-15T00:49:57;26.10;51.60
36652;DHT22;53334;51.976;20.144;2023-03-15T00:52:33;26.00;51.80
36652;DHT22;53334;51.976;20.144;2023-03-15T00:55:10;26.10;52.10
36652;DHT22;53334;51.976;20.144;2023-03-15T00:57:46;26.10;52.10
36652;DHT22;53334;51.976;20.144;2023-03-15T01:00:22;26.10;52.00
36652;DHT22;53334;51.976;20.144;2023-03-15T01:02:56;26.10;52.00
36652;DHT22;53334;51.976;20.144;2023-03-15T01:05:29;26.10;51.90
36652;DHT22;53334;51.976;20.144;2023-03-15T01:08:03;26.00;51.80
36652;DHT22;53334;51.976;20.144;2023-03-15T01:10:36;26.10;51.90
36652;DHT22;53334;51.976;20.144;2023-03-15T01:13:12;26.10;52.00
36652;DHT22;53334;51.976;20.144;2023-03-15T01:15:46;26.00;52.10
36652;DHT22;53334;51.976;20.144;2023-03-15T01:18:19;26.10;52.20
36652;DHT22;53334;51.976;20.144;2023-03-15T01:20:52;26.00;52.30
36652;DHT22;53334;51.976;20.144;2023-03-15T01:23:26;26.00;52.20
36652;DHT22;53334;51.976;20.144;2023-03-15T01:25:59;26.00;52.20
36652;DHT22;53334;51.976;20.144;2023-03-15T01:28:34;26.00;52.10
36652;DHT22;53334;51.976;20.144;2023-03-15T01:31:08;26.00;52.30
36652;DHT22;53334;51.976;20.144;2023-03-15T01:33:42;26.00;52.30
36652;DHT22;53334;51.976;20.144;2023-03-15T01:36:16;26.00;52.20
36652;DHT22;53334;51.976;20.144;2023-03-15T01:38:50;26.00;52.20
36652;DHT22;53334;51.976;20.144;2023-03-15T01:41:29;26.00;52.20
36652;DHT22;53334;51.976;20.144;2023-03-15T01:44:07;26.10;52.30
36652;DHT22;53334;51.976;20.144;2023-03-15T01:46:42;26.00;52.20
36652;DHT22;53334;51.976;20.144;2023-03-15T01:49:23;26.00;52.20
36652;DHT22;53334;51.976;20.144;2023-03-15T01:52:01;26.00;52.20
36652;DHT22;53334;51.976;20.144;2023-03-15T01:54:59;26.00;52.20
36652;DHT22;53334;51.976;20.144;2023-03-15T01:57:36;26.00;52.20
36652;DHT22;53334;51.976;20.144;2023-03-15T02:00:15;26.00;52.40
36652;DHT22;53334;51.976;20.144;2023-03-15T02:03:04;26.00;52.40
36652;DHT22;53334;51.976;20.144;2023-03-15T02:05:43;26.00;52.40
36652;DHT22;53334;51.976;20.144;2023-03-15T02:08:29;26.00;52.40
36652;DHT22;53334;51.976;20.144;2023-03-15T02:11:04;26.00;52.40
36652;DHT22;53334;51.976;20.144;2023-03-15T02:13:38;26.00;52.40
36652;DHT22;53334;51.976;20.144;2023-03-15T02:16:15;26.00;52.30
36652;DHT22;53334;51.976;20.144;2023-03-15T02:18:57;26.00;52.30
36652;DHT22;53334;51.976;20.144;2023-03-15T02:21:43;26.00;52.30
36652;DHT22;53334;51.976;20.144;2023-03-15T02:24:28;26.00;52.40
36652;DHT22;53334;51.976;20.144;2023-03-15T02:27:05;26.00;52.40
36652;DHT22;53334;51.976;20.144;2023-03-15T02:29:39;26.00;52.30
36652;DHT22;53334;51.976;20.144;2023-03-15T02:32:13;26.00;52.40
36652;DHT22;53334;51.976;20.144;2023-03-15T02:34:46;26.00;52.30
36652;DHT22;53334;51.976;20.144;2023-03-15T02:37:20;26.00;52.30
36652;DHT22;53334;51.976;20.144;2023-03-15T02:39:53;26.00;52.40
36652;DHT22;53334;51.976;20.144;2023-03-15T02:42:27;26.00;52.40
36652;DHT22;53334;51.976;20.144;2023-03-15T02:45:05;26.00;52.50
36652;DHT22;53334;51.976;20.144;2023-03-15T02:47:38;26.00;52.60
36652;DHT22;53334;51.976;20.144;2023-03-15T02:50:12;26.00;52.60
36652;DHT22;53334;51.976;20.144;2023-03-15T02:52:45;26.00;52.60
36652;DHT22;53334;51.976;20.144;2023-03-15T02:55:19;26.00;52.70
36652;DHT22;53334;51.976;20.144;2023-03-15T02:57:53;26.00;52.70
36652;DHT22;53334;51.976;20.144;2023-03-15T03:00:28;26.00;52.90
36652;DHT22;53334;51.976;20.144;2023-03-15T03:03:01;26.00;52.90
36652;DHT22;53334;51.976;20.144;2023-03-15T03:05:36;26.00;53.00
36652;DHT22;53334;51.976;20.144;2023-03-15T03:08:09;26.00;53.00
36652;DHT22;53334;51.976;20.144;2023-03-15T03:10:43;26.00;53.20
36652;DHT22;53334;51.976;20.144;2023-03-15T03:13:17;26.00;53.20
36652;DHT22;53334;51.976;20.144;2023-03-15T03:15:51;26.00;53.20
36652;DHT22;53334;51.976;20.144;2023-03-15T03:18:32;26.00;53.20
36652;DHT22;53334;51.976;20.144;2023-03-15T03:21:08;26.00;53.20
36652;DHT22;53334;51.976;20.144;2023-03-15T03:23:41;26.00;53.10
36652;DHT22;53334;51.976;20.144;2023-03-15T03:26:18;26.00;53.20
36652;DHT22;53334;51.976;20.144;2023-03-15T03:28:54;26.00;53.20
36652;DHT22;53334;51.976;20.144;2023-03-15T03:31:30;26.00;53.30
36652;DHT22;53334;51.976;20.144;2023-03-15T03:34:05;26.00;53.30
36652;DHT22;53334;51.976;20.144;2023-03-15T03:36:40;26.00;53.20
36652;DHT22;53334;51.976;20.144;2023-03-15T03:39:15;26.00;53.30
36652;DHT22;53334;51.976;20.144;2023-03-15T03:41:49;26.00;53.30
36652;DHT22;53334;51.976;20.144;2023-03-15T03:44:23;26.00;53.30
36652;DHT22;53334;51.976;20.144;2023-03-15T03:46:57;26.00;53.20
36652;DHT22;53334;51.976;20.144;2023-03-15T03:49:33;26.00;53.20
36652;DHT22;53334;51.976;20.144;2023-03-15T03:52:06;26.00;53.30
36652;DHT22;53334;51.976;20.144;2023-03-15T03:54:40;26.00;53.20
36652;DHT22;53334;51.976;20.144;2023-03-15T03:57:14;26.00;53.20
36652;DHT22;53334;51.976;20.144;2023-03-15T03:59:47;26.00;53.10
36652;DHT22;53334;51.976;20.144;2023-03-15T04:02:22;26.00;53.10
36652;DHT22;53334;51.976;20.144;2023-03-15T04:05:03;26.00;53.00
36652;DHT22;53334;51.976;20.144;2023-03-15T04:07:37;26.00;53.00
36652;DHT22;53334;51.976;20.144;2023-03-15T04:10:11;26.00;53.00
36652;DHT22;53334;51.976;20.144;2023-03-15T04:12:48;26.00;52.90
36652;DHT22;53334;51.976;20.144;2023-03-15T04:15:21;26.00;53.00
36652;DHT22;53334;51.976;20.144;2023-03-15T04:17:56;26.00;53.00
36652;DHT22;53334;51.976;20.144;2023-03-15T04:20:36;26.00;53.10
36652;DHT22;53334;51.976;20.144;2023-03-15T04:23:09;26.00;53.00
36652;DHT22;53334;51.976;20.144;2023-03-15T04:26:06;26.00;53.00
36652;DHT22;53334;51.976;20.144;2023-03-15T04:29:00;26.00;53.10
36652;DHT22;53334;51.976;20.144;2023-03-15T04:31:58;26.00;53.10
36652;DHT22;53334;51.976;20.144;2023-03-15T04:34:51;26.00;53.00
36652;DHT22;53334;51.976;20.144;2023-03-15T04:37:44;26.00;53.10
36652;DHT22;53334;51.976;20.144;2023-03-15T04:40:38;26.00;53.10
36652;DHT22;53334;51.976;20.144;2023-03-15T04:43:32;26.00;53.00
36652;DHT22;53334;51.976;20.144;2023-03-15T04:46:19;26.00;53.00
36652;DHT22;53334;51.976;20.144;2023-03-15T04:49:12;26.00;53.00
36652;DHT22;53334;51.976;20.144;2023-03-15T04:52:05;26.00;53.00
36652;DHT22;53334;51.976;20.144;2023-03-15T04:54:52;26.00;52.90
36652;DHT22;53334;51.976;20.144;2023-03-15T04:57:50;26.00;52.90
36652;DHT22;53334;51.976;20.144;2023-03-15T05:00:37;26.00;52.90
36652;DHT22;53334;51.976;20.144;2023-03-15T05:03:46;26.00;52.90
36652;DHT22;53334;51.976;20.144;2023-03-15T05:06:40;26.00;53.00
36652;DHT22;53334;51.976;20.144;2023-03-15T05:09:46;26.00;53.00
36652;DHT22;53334;51.976;20.144;2023-03-15T05:12:38;26.00;53.00
36652;DHT22;53334;51.976;20.144;2023-03-15T05:15:37;25.90;52.90
36652;DHT22;53334;51.976;20.144;2023-03-15T05:18:43;26.00;53.00
36652;DHT22;53334;51.976;20.144;2023-03-15T05:21:37;26.00;53.00
36652;DHT22;53334;51.976;20.144;2023-03-15T05:24:19;25.90;52.90
36652;DHT22;53334;51.976;20.144;2023-03-15T05:27:13;26.00;53.00
36652;DHT22;53334;51.976;20.144;2023-03-15T05:29:53;26.00;53.00
36652;DHT22;53334;51.976;20.144;2023-03-15T05:32:26;26.00;52.90
36652;DHT22;53334;51.976;20.144;2023-03-15T05:35:22;26.00;52.90
36652;DHT22;53334;51.976;20.144;2023-03-15T05:38:11;26.00;52.90
36652;DHT22;53334;51.976;20.144;2023-03-15T05:41:12;26.00;52.80
36652;DHT22;53334;51.976;20.144;2023-03-15T05:44:05;26.00;52.80
36652;DHT22;53334;51.976;20.144;2023-03-15T05:46:53;26.00;52.80
36652;DHT22;53334;51.976;20.144;2023-03-15T05:49:45;25.90;52.70
36652;DHT22;53334;51.976;20.144;2023-03-15T05:52:39;26.00;52.90
36652;DHT22;53334;51.976;20.144;2023-03-15T05:55:19;26.00;52.90
36652;DHT22;53334;51.976;20.144;2023-03-15T05:58:01;26.00;53.00
36652;DHT22;53334;51.976;20.144;2023-03-15T06:00:56;26.00;52.90
36652;DHT22;53334;51.976;20.144;2023-03-15T06:03:49;25.90;52.80
36652;DHT22;53334;51.976;20.144;2023-03-15T06:06:27;26.00;52.80
36652;DHT22;53334;51.976;20.144;2023-03-15T06:09:03;26.00;52.80
36652;DHT22;53334;51.976;20.144;2023-03-15T06:11:37;26.00;52.80
36652;DHT22;53334;51.976;20.144;2023-03-15T06:14:12;26.00;52.80
36652;DHT22;53334;51.976;20.144;2023-03-15T06:16:57;26.00;52.80
36652;DHT22;53334;51.976;20.144;2023-03-15T06:19:33;26.00;52.80
36652;DHT22;53334;51.976;20.144;2023-03-15T06:22:09;26.00;52.80
36652;DHT22;53334;51.976;20.144;2023-03-15T06:24:51;26.00;52.80
36652;DHT22;53334;51.976;20.144;2023-03-15T06:27:26;26.00;52.70
36652;DHT22;53334;51.976;20.144;2023-03-15T06:30:01;26.00;52.80
36652;DHT22;53334;51.976;20.144;2023-03-15T06:32:36;26.00;52.80
36652;DHT22;53334;51.976;20.144;2023-03-15T06:35:09;26.00;52.90
36652;DHT22;53334;51.976;20.144;2023-03-15T06:37:43;26.00;52.90
36652;DHT22;53334;51.976;20.144;2023-03-15T06:40:16;26.00;52.80
36652;DHT22;53334;51.976;20.144;2023-03-15T06:42:51;26.00;52.70
36652;DHT22;53334;51.976;20.144;2023-03-15T06:45:26;26.00;52.50
36652;DHT22;53334;51.976;20.144;2023-03-15T06:48:03;26.00;52.40
36652;DHT22;53334;51.976;20.144;2023-03-15T06:50:37;26.00;51.80
36652;DHT22;53334;51.976;20.144;2023-03-15T06:53:18;26.00;51.60
36652;DHT22;53334;51.976;20.144;2023-03-15T06:55:52;26.00;51.20
36652;DHT22;53334;51.976;20.144;2023-03-15T06:58:25;25.90;50.10
36652;DHT22;53334;51.976;20.144;2023-03-15T07:00:58;25.90;50.10
36652;DHT22;53334;51.976;20.144;2023-03-15T07:03:33;25.90;50.00
36652;DHT22;53334;51.976;20.144;2023-03-15T07:06:07;26.00;48.90
36652;DHT22;53334;51.976;20.144;2023-03-15T07:08:40;25.90;47.00
36652;DHT22;53334;51.976;20.144;2023-03-15T07:11:14;25.90;38.90
36652;DHT22;53334;51.976;20.144;2023-03-15T07:13:47;25.80;36.60
36652;DHT22;53334;51.976;20.144;2023-03-15T07:16:20;25.80;37.90
36652;DHT22;53334;51.976;20.144;2023-03-15T07:18:55;25.80;37.90
36652;DHT22;53334;51.976;20.144;2023-03-15T07:21:30;25.80;39.90
36652;DHT22;53334;51.976;20.144;2023-03-15T07:24:04;25.70;39.10
36652;DHT22;53334;51.976;20.144;2023-03-15T07:26:38;25.70;39.30
36652;DHT22;53334;51.976;20.144;2023-03-15T07:29:11;25.70;39.60
36652;DHT22;53334;51.976;20.144;2023-03-15T07:31:45;25.80;40.10
36652;DHT22;53334;51.976;20.144;2023-03-15T07:34:19;25.70;40.40
36652;DHT22;53334;51.976;20.144;2023-03-15T07:36:53;25.80;41.00
36652;DHT22;53334;51.976;20.144;2023-03-15T07:39:26;25.80;41.20
36652;DHT22;53334;51.976;20.144;2023-03-15T07:42:03;25.80;41.50
36652;DHT22;53334;51.976;20.144;2023-03-15T07:44:44;25.80;42.00
36652;DHT22;53334;51.976;20.144;2023-03-15T07:47:17;25.80;41.90
36652;DHT22;53334;51.976;20.144;2023-03-15T07:49:52;25.80;42.00
36652;DHT22;53334;51.976;20.144;2023-03-15T07:52:26;25.80;42.20
36652;DHT22;53334;51.976;20.144;2023-03-15T07:55:00;25.80;42.30
36652;DHT22;53334;51.976;20.144;2023-03-15T07:57:33;25.80;42.40
36652;DHT22;53334;51.976;20.144;2023-03-15T08:00:08;25.80;42.60
36652;DHT22;53334;51.976;20.144;2023-03-15T08:02:43;25.80;42.60
36652;DHT22;53334;51.976;20.144;2023-03-15T08:05:18;25.80;42.40
36652;DHT22;53334;51.976;20.144;2023-03-15T08:07:51;25.80;42.60
36652;DHT22;53334;51.976;20.144;2023-03-15T08:10:25;25.80;42.50
36652;DHT22;53334;51.976;20.144;2023-03-15T08:12:58;25.80;42.70
36652;DHT22;53334;51.976;20.144;2023-03-15T08:15:31;25.80;43.50
36652;DHT22;53334;51.976;20.144;2023-03-15T08:18:05;25.80;42.90
36652;DHT22;53334;51.976;20.144;2023-03-15T08:20:39;25.80;42.80
36652;DHT22;53334;51.976;20.144;2023-03-15T08:23:13;25.80;42.90
36652;DHT22;53334;51.976;20.144;2023-03-15T08:25:48;25.80;43.00
36652;DHT22;53334;51.976;20.144;2023-03-15T08:28:21;25.90;43.10
36652;DHT22;53334;51.976;20.144;2023-03-15T08:30:54;25.80;43.10
36652;DHT22;53334;51.976;20.144;2023-03-15T08:33:28;25.90;43.00
36652;DHT22;53334;51.976;20.144;2023-03-15T08:36:04;25.90;42.70
36652;DHT22;53334;51.976;20.144;2023-03-15T08:38:38;25.90;42.40
36652;DHT22;53334;51.976;20.144;2023-03-15T08:41:12;25.90;42.30
36652;DHT22;53334;51.976;20.144;2023-03-15T08:43:46;25.90;42.40
36652;DHT22;53334;51.976;20.144;2023-03-15T08:46:19;25.90;42.60
36652;DHT22;53334;51.976;20.144;2023-03-15T08:48:53;25.90;42.30
36652;DHT22;53334;51.976;20.144;2023-03-15T08:51:28;25.90;42.10
36652;DHT22;53334;51.976;20.144;2023-03-15T08:54:02;25.90;42.00
36652;DHT22;53334;51.976;20.144;2023-03-15T08:56:36;25.90;42.20
36652;DHT22;53334;51.976;20.144;2023-03-15T08:59:09;25.90;42.20
36652;DHT22;53334;51.976;20.144;2023-03-15T09:01:53;26.00;42.10
36652;DHT22;53334;51.976;20.144;2023-03-15T09:04:26;25.90;42.10
36652;DHT22;53334;51.976;20.144;2023-03-15T09:07:01;26.00;42.20
36652;DHT22;53334;51.976;20.144;2023-03-15T09:09:34;26.00;42.40
36652;DHT22;53334;51.976;20.144;2023-03-15T09:12:08;26.00;42.30
36652;DHT22;53334;51.976;20.144;2023-03-15T09:14:41;26.00;42.20
36652;DHT22;53334;51.976;20.144;2023-03-15T09:17:15;26.00;42.60
36652;DHT22;53334;51.976;20.144;2023-03-15T09:19:48;26.00;42.40
36652;DHT22;53334;51.976;20.144;2023-03-15T09:22:24;26.00;42.40
36652;DHT22;53334;51.976;20.144;2023-03-15T09:25:10;26.00;42.20
36652;DHT22;53334;51.976;20.144;2023-03-15T09:27:44;26.00;42.30
36652;DHT22;53334;51.976;20.144;2023-03-15T09:30:18;26.00;42.30
36652;DHT22;53334;51.976;20.144;2023-03-15T09:32:51;26.00;42.20
36652;DHT22;53334;51.976;20.144;2023-03-15T09:35:25;26.00;42.30
36652;DHT22;53334;51.976;20.144;2023-03-15T09:38:00;26.00;42.30
36652;DHT22;53334;51.976;20.144;2023-03-15T09:40:39;26.00;42.40
36652;DHT22;53334;51.976;20.144;2023-03-15T09:46:25;26.10;41.70
36652;DHT22;53334;51.976;20.144;2023-03-15T09:49:03;26.10;35.10
36652;DHT22;53334;51.976;20.144;2023-03-15T09:51:41;26.10;34.80
36652;DHT22;53334;51.976;20.144;2023-03-15T09:54:23;26.10;34.90
36652;DHT22;53334;51.976;20.144;2023-03-15T09:56:59;26.00;36.40
36652;DHT22;53334;51.976;20.144;2023-03-15T09:59:40;26.00;36.40
36652;DHT22;53334;51.976;20.144;2023-03-15T10:02:18;26.00;36.40
36652;DHT22;53334;51.976;20.144;2023-03-15T10:04:57;26.00;36.90
36652;DHT22;53334;51.976;20.144;2023-03-15T10:07:31;26.00;37.50
36652;DHT22;53334;51.976;20.144;2023-03-15T10:10:13;26.00;37.50
36652;DHT22;53334;51.976;20.144;2023-03-15T10:12:53;26.00;37.50
36652;DHT22;53334;51.976;20.144;2023-03-15T10:15:38;26.00;37.20
36652;DHT22;53334;51.976;20.144;2023-03-15T10:18:33;26.00;37.90
36652;DHT22;53334;51.976;20.144;2023-03-15T10:21:15;26.00;37.80
36652;DHT22;53334;51.976;20.144;2023-03-15T10:23:53;26.00;37.20
36652;DHT22;53334;51.976;20.144;2023-03-15T10:26:31;26.00;37.10
36652;DHT22;53334;51.976;20.144;2023-03-15T10:29:13;26.00;37.70
36652;DHT22;53334;51.976;20.144;2023-03-15T10:31:47;26.00;38.00
36652;DHT22;53334;51.976;20.144;2023-03-15T10:34:24;26.10;38.30
36652;DHT22;53334;51.976;20.144;2023-03-15T10:36:58;26.10;38.70
36652;DHT22;53334;51.976;20.144;2023-03-15T10:39:31;26.10;38.80
36652;DHT22;53334;51.976;20.144;2023-03-15T10:42:06;26.10;38.90
36652;DHT22;53334;51.976;20.144;2023-03-15T10:44:40;26.20;39.30
36652;DHT22;53334;51.976;20.144;2023-03-15T10:47:15;26.20;39.30
36652;DHT22;53334;51.976;20.144;2023-03-15T10:49:57;26.20;39.10
36652;DHT22;53334;51.976;20.144;2023-03-15T10:52:35;26.20;38.90
36652;DHT22;53334;51.976;20.144;2023-03-15T10:55:11;26.20;38.90
36652;DHT22;53334;51.976;20.144;2023-03-15T10:57:54;26.20;38.90
36652;DHT22;53334;51.976;20.144;2023-03-15T11:00:30;26.20;39.10
36652;DHT22;53334;51.976;20.144;2023-03-15T11:03:28;26.20;39.20
36652;DHT22;53334;51.976;20.144;2023-03-15T11:06:03;26.20;39.10
36652;DHT22;53334;51.976;20.144;2023-03-15T11:08:49;26.20;39.30
36652;DHT22;53334;51.976;20.144;2023-03-15T11:11:23;26.20;39.40
36652;DHT22;53334;51.976;20.144;2023-03-15T11:13:59;26.20;39.40
36652;DHT22;53334;51.976;20.144;2023-03-15T11:16:34;26.20;39.00
36652;DHT22;53334;51.976;20.144;2023-03-15T11:19:12;26.20;38.90
36652;DHT22;53334;51.976;20.144;2023-03-15T11:21:49;26.20;38.90
36652;DHT22;53334;51.976;20.144;2023-03-15T11:24:25;26.20;39.00
36652;DHT22;53334;51.976;20.144;2023-03-15T11:27:01;26.20;39.20
36652;DHT22;53334;51.976;20.144;2023-03-15T11:29:37;26.20;39.40
36652;DHT22;53334;51.976;20.144;2023-03-15T11:32:13;26.20;39.50
36652;DHT22;53334;51.976;20.144;2023-03-15T11:34:54;26.20;39.40
36652;DHT22;53334;51.976;20.144;2023-03-15T11:37:33;26.20;39.70
36652;DHT22;53334;51.976;20.144;2023-03-15T11:40:15;26.20;39.70
36652;DHT22;53334;51.976;20.144;2023-03-15T11:42:54;26.10;39.80
36652;DHT22;53334;51.976;20.144;2023-03-15T11:45:34;26.10;39.70
36652;DHT22;53334;51.976;20.144;2023-03-15T11:48:33;26.10;39.90
36652;DHT22;53334;51.976;20.144;2023-03-15T11:51:12;26.10;39.80
36652;DHT22;53334;51.976;20.144;2023-03-15T11:53:49;26.10;39.90
36652;DHT22;53334;51.976;20.144;2023-03-15T11:56:27;26.10;40.00
36652;DHT22;53334;51.976;20.144;2023-03-15T11:59:18;26.10;40.00
36652;DHT22;53334;51.976;20.144;2023-03-15T12:01:57;26.10;39.50
36652;DHT22;53334;51.976;20.144;2023-03-15T12:04:43;26.10;39.30
36652;DHT22;53334;51.976;20.144;2023-03-15T12:07:37;26.20;39.60
36652;DHT22;53334;51.976;20.144;2023-03-15T12:10:42;26.20;40.10
36652;DHT22;53334;51.976;20.144;2023-03-15T12:13:29;26.20;39.60
36652;DHT22;53334;51.976;20.144;2023-03-15T12:16:05;26.20;40.00
36652;DHT22;53334;51.976;20.144;2023-03-15T12:18:42;26.20;39.70
36652;DHT22;53334;51.976;20.144;2023-03-15T12:21:20;26.20;39.90
36652;DHT22;53334;51.976;20.144;2023-03-15T12:23:59;26.20;39.70
36652;DHT22;53334;51.976;20.144;2023-03-15T12:26:40;26.20;39.70
36652;DHT22;53334;51.976;20.144;2023-03-15T12:29:20;26.20;39.60
36652;DHT22;53334;51.976;20.144;2023-03-15T12:31:57;26.20;39.50
36652;DHT22;53334;51.976;20.144;2023-03-15T12:34:44;26.20;39.60
36652;DHT22;53334;51.976;20.144;2023-03-15T12:37:20;26.20;39.90
36652;DHT22;53334;51.976;20.144;2023-03-15T12:39:59;26.30;40.20
36652;DHT22;53334;51.976;20.144;2023-03-15T12:42:58;26.30;40.30
36652;DHT22;53334;51.976;20.144;2023-03-15T12:45:37;26.30;40.30
36652;DHT22;53334;51.976;20.144;2023-03-15T12:48:28;26.30;40.30
36652;DHT22;53334;51.976;20.144;2023-03-15T12:51:08;26.30;40.40
36652;DHT22;53334;51.976;20.144;2023-03-15T12:53:47;26.30;40.50
36652;DHT22;53334;51.976;20.144;2023-03-15T12:56:29;26.30;40.50
36652;DHT22;53334;51.976;20.144;2023-03-15T12:59:12;26.30;40.60
36652;DHT22;53334;51.976;20.144;2023-03-15T13:01:49;26.40;40.60
36652;DHT22;53334;51.976;20.144;2023-03-15T13:04:24;26.40;40.60
36652;DHT22;53334;51.976;20.144;2023-03-15T13:07:21;26.30;40.60
36652;DHT22;53334;51.976;20.144;2023-03-15T13:13:02;26.40;40.60
36652;DHT22;53334;51.976;20.144;2023-03-15T13:15:41;26.30;40.60
36652;DHT22;53334;51.976;20.144;2023-03-15T13:18:29;26.30;40.60
36652;DHT22;53334;51.976;20.144;2023-03-15T13:21:13;26.40;40.60
36652;DHT22;53334;51.976;20.144;2023-03-15T13:23:50;26.40;40.70
36652;DHT22;53334;51.976;20.144;2023-03-15T13:26:40;26.40;40.80
36652;DHT22;53334;51.976;20.144;2023-03-15T13:29:20;26.40;40.90
36652;DHT22;53334;51.976;20.144;2023-03-15T13:32:03;26.40;41.10
36652;DHT22;53334;51.976;20.144;2023-03-15T13:34:41;26.30;41.00
36652;DHT22;53334;51.976;20.144;2023-03-15T13:37:20;26.30;40.80
36652;DHT22;53334;51.976;20.144;2023-03-15T13:39:59;26.30;40.70
36652;DHT22;53334;51.976;20.144;2023-03-15T13:42:37;26.30;40.70
36652;DHT22;53334;51.976;20.144;2023-03-15T13:45:12;26.30;40.70
36652;DHT22;53334;51.976;20.144;2023-03-15T13:47:46;26.30;40.80
36652;DHT22;53334;51.976;20.144;2023-03-15T13:50:20;26.30;40.80
36652;DHT22;53334;51.976;20.144;2023-03-15T13:52:54;26.30;41.40
36652;DHT22;53334;51.976;20.144;2023-03-15T13:55:33;26.30;40.70
36652;DHT22;53334;51.976;20.144;2023-03-15T13:58:08;26.30;40.70
36652;DHT22;53334;51.976;20.144;2023-03-15T14:00:41;26.30;40.80
36652;DHT22;53334;51.976;20.144;2023-03-15T14:03:19;26.30;40.70
36652;DHT22;53334;51.976;20.144;2023-03-15T14:05:56;26.30;40.80
36652;DHT22;53334;51.976;20.144;2023-03-15T14:08:31;26.30;40.80
36652;DHT22;53334;51.976;20.144;2023-03-15T14:11:10;26.30;40.90
36652;DHT22;53334;51.976;20.144;2023-03-15T14:13:48;26.30;40.90
36652;DHT22;53334;51.976;20.144;2023-03-15T14:16:32;26.40;41.00
36652;DHT22;53334;51.976;20.144;2023-03-15T14:19:17;26.40;41.30
36652;DHT22;53334;51.976;20.144;2023-03-15T14:21:52;26.40;41.70
36652;DHT22;53334;51.976;20.144;2023-03-15T14:24:29;26.30;41.40
36652;DHT22;53334;51.976;20.144;2023-03-15T14:27:07;26.30;36.90
36652;DHT22;53334;51.976;20.144;2023-03-15T14:29:46;26.20;30.50
36652;DHT22;53334;51.976;20.144;2023-03-15T14:32:26;26.20;29.70
36652;DHT22;53334;51.976;20.144;2023-03-15T14:35:02;26.10;30.70
36652;DHT22;53334;51.976;20.144;2023-03-15T14:37:38;26.00;31.90
36652;DHT22;53334;51.976;20.144;2023-03-15T14:40:16;26.00;31.10
36652;DHT22;53334;51.976;20.144;2023-03-15T14:42:53;26.00;31.40
36652;DHT22;53334;51.976;20.144;2023-03-15T14:45:27;26.00;32.30
36652;DHT22;53334;51.976;20.144;2023-03-15T14:48:03;25.90;32.40
36652;DHT22;53334;51.976;20.144;2023-03-15T14:50:39;25.90;33.00
36652;DHT22;53334;51.976;20.144;2023-03-15T14:53:16;25.90;33.00
36652;DHT22;53334;51.976;20.144;2023-03-15T14:55:49;25.90;33.00
36652;DHT22;53334;51.976;20.144;2023-03-15T14:58:24;25.90;33.40
36652;DHT22;53334;51.976;20.144;2023-03-15T15:00:58;25.90;34.30
36652;DHT22;53334;51.976;20.144;2023-03-15T15:03:34;25.90;34.80
36652;DHT22;53334;51.976;20.144;2023-03-15T15:06:12;25.90;34.70
36652;DHT22;53334;51.976;20.144;2023-03-15T15:08:46;25.90;35.00
36652;DHT22;53334;51.976;20.144;2023-03-15T15:11:20;25.90;35.00
36652;DHT22;53334;51.976;20.144;2023-03-15T15:13:55;25.90;35.30
36652;DHT22;53334;51.976;20.144;2023-03-15T15:16:28;25.90;35.30
36652;DHT22;53334;51.976;20.144;2023-03-15T15:19:02;25.90;35.50
36652;DHT22;53334;51.976;20.144;2023-03-15T15:21:37;25.90;35.50
36652;DHT22;53334;51.976;20.144;2023-03-15T15:24:14;25.90;35.90
36652;DHT22;53334;51.976;20.144;2023-03-15T15:26:48;25.90;36.10
36652;DHT22;53334;51.976;20.144;2023-03-15T15:29:23;25.90;36.30
36652;DHT22;53334;51.976;20.144;2023-03-15T15:31:56;25.90;36.60
36652;DHT22;53334;51.976;20.144;2023-03-15T15:34:29;25.90;36.80
36652;DHT22;53334;51.976;20.144;2023-03-15T15:37:05;25.90;37.00
36652;DHT22;53334;51.976;20.144;2023-03-15T15:39:38;26.00;37.90
36652;DHT22;53334;51.976;20.144;2023-03-15T15:42:12;26.00;37.50
36652;DHT22;53334;51.976;20.144;2023-03-15T15:44:47;25.90;37.50
36652;DHT22;53334;51.976;20.144;2023-03-15T15:47:20;26.00;37.70
36652;DHT22;53334;51.976;20.144;2023-03-15T15:49:53;26.00;37.60
36652;DHT22;53334;51.976;20.144;2023-03-15T15:52:28;25.90;37.60
36652;DHT22;53334;51.976;20.144;2023-03-15T15:55:01;26.00;38.00
36652;DHT22;53334;51.976;20.144;2023-03-15T15:57:36;25.90;37.90
36652;DHT22;53334;51.976;20.144;2023-03-15T16:00:14;26.00;38.00
36652;DHT22;53334;51.976;20.144;2023-03-15T16:02:49;25.90;38.10
36652;DHT22;53334;51.976;20.144;2023-03-15T16:05:25;25.90;37.90
36652;DHT22;53334;51.976;20.144;2023-03-15T16:08:01;25.90;38.00
36652;DHT22;53334;51.976;20.144;2023-03-15T16:10:35;25.90;38.60
36652;DHT22;53334;51.976;20.144;2023-03-15T16:13:10;25.90;38.30
36652;DHT22;53334;51.976;20.144;2023-03-15T16:15:46;25.90;38.60
36652;DHT22;53334;51.976;20.144;2023-03-15T16:18:19;25.90;38.60
36652;DHT22;53334;51.976;20.144;2023-03-15T16:20:53;26.00;38.70
36652;DHT22;53334;51.976;20.144;2023-03-15T16:23:26;26.00;39.20
36652;DHT22;53334;51.976;20.144;2023-03-15T16:26:00;26.00;38.80
36652;DHT22;53334;51.976;20.144;2023-03-15T16:28:33;25.90;38.80